<?xml version="1.0" encoding="UTF-8" standalone="no" ?>
<gpx xmlns="http://www.topografix.com/GPX/1/1" xmlns:xsi="http://www.w3.org/2001/XMLSchema-instance" xsi:schemaLocation="http://www.topografix.com/GPX/1/1 http://www.topografix.com/GPX/1/1/gpx.xsd" version="1.1" creator="VisuGPX - https://www.visugpx.com">
  <metadata>
    <name>83 - L - Lorgues</name>
    <desc><![CDATA[83 - L - Lorgues - Sauveclare - Chapelle Saint Jean - pont romain - cascade]]></desc>
  </metadata>
  <trk>
    <name><![CDATA[lorgues-sauveclare-chapelle-st-jean-pont-roman]]></name>
    <trkseg>
      <trkpt lat="43.50782" lon="6.38847">
        <ele>170</ele>
        <time>2026-02-23T08:18:21Z</time>
      </trkpt>
      <trkpt lat="43.50778" lon="6.38851">
        <ele>170</ele>
        <time>2026-02-23T08:18:23Z</time>
      </trkpt>
      <trkpt lat="43.50766" lon="6.3887">
        <ele>170</ele>
        <time>2026-02-23T08:20:44Z</time>
      </trkpt>
      <trkpt lat="43.50766" lon="6.38901">
        <ele>170</ele>
        <time>2026-02-23T08:21:29Z</time>
      </trkpt>
      <trkpt lat="43.50771" lon="6.38931">
        <ele>173</ele>
        <time>2026-02-23T08:21:52Z</time>
      </trkpt>
      <trkpt lat="43.50781" lon="6.38959">
        <ele>175</ele>
        <time>2026-02-23T08:22:16Z</time>
      </trkpt>
      <trkpt lat="43.50798" lon="6.38982">
        <ele>176</ele>
        <time>2026-02-23T08:22:43Z</time>
      </trkpt>
      <trkpt lat="43.50817" lon="6.39001">
        <ele>176</ele>
        <time>2026-02-23T08:23:10Z</time>
      </trkpt>
      <trkpt lat="43.50837" lon="6.39013">
        <ele>176</ele>
        <time>2026-02-23T08:23:29Z</time>
      </trkpt>
      <trkpt lat="43.50859" lon="6.39028">
        <ele>176</ele>
        <time>2026-02-23T08:23:53Z</time>
      </trkpt>
      <trkpt lat="43.50882" lon="6.39034">
        <ele>176</ele>
        <time>2026-02-23T08:24:18Z</time>
      </trkpt>
      <trkpt lat="43.50905" lon="6.39038">
        <ele>177</ele>
        <time>2026-02-23T08:24:41Z</time>
      </trkpt>
      <trkpt lat="43.50928" lon="6.39045">
        <ele>178</ele>
        <time>2026-02-23T08:25:18Z</time>
      </trkpt>
      <trkpt lat="43.50952" lon="6.39052">
        <ele>178</ele>
        <time>2026-02-23T08:25:42Z</time>
      </trkpt>
      <trkpt lat="43.50975" lon="6.39056">
        <ele>179</ele>
        <time>2026-02-23T08:26:14Z</time>
      </trkpt>
      <trkpt lat="43.50999" lon="6.39054">
        <ele>178</ele>
        <time>2026-02-23T08:27:01Z</time>
      </trkpt>
      <trkpt lat="43.51021" lon="6.39055">
        <ele>178</ele>
        <time>2026-02-23T08:27:46Z</time>
      </trkpt>
      <trkpt lat="43.51041" lon="6.39044">
        <ele>178</ele>
        <time>2026-02-23T08:28:17Z</time>
      </trkpt>
      <trkpt lat="43.51063" lon="6.39038">
        <ele>179</ele>
        <time>2026-02-23T08:28:43Z</time>
      </trkpt>
      <trkpt lat="43.51085" lon="6.39028">
        <ele>180</ele>
        <time>2026-02-23T08:30:20Z</time>
      </trkpt>
      <trkpt lat="43.51107" lon="6.39019">
        <ele>181</ele>
        <time>2026-02-23T08:30:49Z</time>
      </trkpt>
      <trkpt lat="43.51129" lon="6.39012">
        <ele>182</ele>
        <time>2026-02-23T08:31:10Z</time>
      </trkpt>
      <trkpt lat="43.51151" lon="6.39006">
        <ele>184</ele>
        <time>2026-02-23T08:31:56Z</time>
      </trkpt>
      <trkpt lat="43.51173" lon="6.38998">
        <ele>185</ele>
        <time>2026-02-23T08:32:18Z</time>
      </trkpt>
      <trkpt lat="43.51195" lon="6.38991">
        <ele>187</ele>
        <time>2026-02-23T08:32:40Z</time>
      </trkpt>
      <trkpt lat="43.51217" lon="6.38984">
        <ele>189</ele>
        <time>2026-02-23T08:33:04Z</time>
      </trkpt>
      <trkpt lat="43.51239" lon="6.38976">
        <ele>191</ele>
        <time>2026-02-23T08:33:29Z</time>
      </trkpt>
      <trkpt lat="43.51261" lon="6.38967">
        <ele>193</ele>
        <time>2026-02-23T08:33:52Z</time>
      </trkpt>
      <trkpt lat="43.51283" lon="6.38959">
        <ele>195</ele>
        <time>2026-02-23T08:34:18Z</time>
      </trkpt>
      <trkpt lat="43.51306" lon="6.38951">
        <ele>197</ele>
        <time>2026-02-23T08:34:47Z</time>
      </trkpt>
      <trkpt lat="43.51328" lon="6.38943">
        <ele>199</ele>
        <time>2026-02-23T08:35:14Z</time>
      </trkpt>
      <trkpt lat="43.5135" lon="6.38933">
        <ele>200</ele>
        <time>2026-02-23T08:35:40Z</time>
      </trkpt>
      <trkpt lat="43.51371" lon="6.38925">
        <ele>201</ele>
        <time>2026-02-23T08:36:04Z</time>
      </trkpt>
      <trkpt lat="43.51392" lon="6.38919">
        <ele>201</ele>
        <time>2026-02-23T08:36:37Z</time>
      </trkpt>
      <trkpt lat="43.51411" lon="6.38933">
        <ele>200</ele>
        <time>2026-02-23T08:40:25Z</time>
      </trkpt>
      <trkpt lat="43.51427" lon="6.38957">
        <ele>201</ele>
        <time>2026-02-23T08:41:00Z</time>
      </trkpt>
      <trkpt lat="43.51439" lon="6.38983">
        <ele>201</ele>
        <time>2026-02-23T08:41:25Z</time>
      </trkpt>
      <trkpt lat="43.51455" lon="6.39007">
        <ele>201</ele>
        <time>2026-02-23T08:42:10Z</time>
      </trkpt>
      <trkpt lat="43.51473" lon="6.39028">
        <ele>201</ele>
        <time>2026-02-23T08:42:34Z</time>
      </trkpt>
      <trkpt lat="43.51493" lon="6.39043">
        <ele>201</ele>
        <time>2026-02-23T08:42:59Z</time>
      </trkpt>
      <trkpt lat="43.51515" lon="6.39054">
        <ele>201</ele>
        <time>2026-02-23T08:43:28Z</time>
      </trkpt>
      <trkpt lat="43.51538" lon="6.3906">
        <ele>202</ele>
        <time>2026-02-23T08:43:52Z</time>
      </trkpt>
      <trkpt lat="43.51561" lon="6.39068">
        <ele>203</ele>
        <time>2026-02-23T08:44:17Z</time>
      </trkpt>
      <trkpt lat="43.51583" lon="6.39075">
        <ele>204</ele>
        <time>2026-02-23T08:44:44Z</time>
      </trkpt>
      <trkpt lat="43.51606" lon="6.39078">
        <ele>206</ele>
        <time>2026-02-23T08:45:20Z</time>
      </trkpt>
      <trkpt lat="43.51628" lon="6.39088">
        <ele>207</ele>
        <time>2026-02-23T08:45:45Z</time>
      </trkpt>
      <trkpt lat="43.51649" lon="6.391">
        <ele>208</ele>
        <time>2026-02-23T08:46:07Z</time>
      </trkpt>
      <trkpt lat="43.51671" lon="6.39113">
        <ele>209</ele>
        <time>2026-02-23T08:46:32Z</time>
      </trkpt>
      <trkpt lat="43.51691" lon="6.3913">
        <ele>209</ele>
        <time>2026-02-23T08:46:50Z</time>
      </trkpt>
      <trkpt lat="43.51708" lon="6.3915">
        <ele>210</ele>
        <time>2026-02-23T08:47:14Z</time>
      </trkpt>
      <trkpt lat="43.51721" lon="6.39177">
        <ele>211</ele>
        <time>2026-02-23T08:47:39Z</time>
      </trkpt>
      <trkpt lat="43.51731" lon="6.39206">
        <ele>211</ele>
        <time>2026-02-23T08:48:03Z</time>
      </trkpt>
      <trkpt lat="43.51737" lon="6.39237">
        <ele>212</ele>
        <time>2026-02-23T08:48:27Z</time>
      </trkpt>
      <trkpt lat="43.5174" lon="6.39268">
        <ele>213</ele>
        <time>2026-02-23T08:48:50Z</time>
      </trkpt>
      <trkpt lat="43.51738" lon="6.39299">
        <ele>213</ele>
        <time>2026-02-23T08:49:14Z</time>
      </trkpt>
      <trkpt lat="43.51734" lon="6.39329">
        <ele>213</ele>
        <time>2026-02-23T08:49:39Z</time>
      </trkpt>
      <trkpt lat="43.51725" lon="6.3936">
        <ele>213</ele>
        <time>2026-02-23T08:50:05Z</time>
      </trkpt>
      <trkpt lat="43.51713" lon="6.39386">
        <ele>214</ele>
        <time>2026-02-23T08:50:30Z</time>
      </trkpt>
      <trkpt lat="43.51697" lon="6.39409">
        <ele>214</ele>
        <time>2026-02-23T08:50:54Z</time>
      </trkpt>
      <trkpt lat="43.5168" lon="6.39431">
        <ele>216</ele>
        <time>2026-02-23T08:51:17Z</time>
      </trkpt>
      <trkpt lat="43.51662" lon="6.3945">
        <ele>217</ele>
        <time>2026-02-23T08:51:43Z</time>
      </trkpt>
      <trkpt lat="43.51643" lon="6.39468">
        <ele>219</ele>
        <time>2026-02-23T08:52:09Z</time>
      </trkpt>
      <trkpt lat="43.51624" lon="6.39482">
        <ele>221</ele>
        <time>2026-02-23T08:52:51Z</time>
      </trkpt>
      <trkpt lat="43.51606" lon="6.39501">
        <ele>222</ele>
        <time>2026-02-23T08:53:19Z</time>
      </trkpt>
      <trkpt lat="43.5159" lon="6.39524">
        <ele>224</ele>
        <time>2026-02-23T08:53:45Z</time>
      </trkpt>
      <trkpt lat="43.51579" lon="6.39551">
        <ele>227</ele>
        <time>2026-02-23T08:54:17Z</time>
      </trkpt>
      <trkpt lat="43.51571" lon="6.3958">
        <ele>229</ele>
        <time>2026-02-23T08:54:45Z</time>
      </trkpt>
      <trkpt lat="43.51567" lon="6.39611">
        <ele>230</ele>
        <time>2026-02-23T08:55:15Z</time>
      </trkpt>
      <trkpt lat="43.51565" lon="6.39641">
        <ele>232</ele>
        <time>2026-02-23T08:56:03Z</time>
      </trkpt>
      <trkpt lat="43.51566" lon="6.39671">
        <ele>232</ele>
        <time>2026-02-23T08:56:32Z</time>
      </trkpt>
      <trkpt lat="43.51554" lon="6.39698">
        <ele>232</ele>
        <time>2026-02-23T08:57:00Z</time>
      </trkpt>
      <trkpt lat="43.5154" lon="6.39721">
        <ele>232</ele>
        <time>2026-02-23T09:02:35Z</time>
      </trkpt>
      <trkpt lat="43.51537" lon="6.39751">
        <ele>232</ele>
        <time>2026-02-23T09:03:06Z</time>
      </trkpt>
      <trkpt lat="43.51532" lon="6.39781">
        <ele>232</ele>
        <time>2026-02-23T09:03:38Z</time>
      </trkpt>
      <trkpt lat="43.5154" lon="6.39808">
        <ele>232</ele>
        <time>2026-02-23T09:04:06Z</time>
      </trkpt>
      <trkpt lat="43.51555" lon="6.39831">
        <ele>231</ele>
        <time>2026-02-23T09:04:30Z</time>
      </trkpt>
      <trkpt lat="43.51573" lon="6.3985">
        <ele>230</ele>
        <time>2026-02-23T09:04:53Z</time>
      </trkpt>
      <trkpt lat="43.51594" lon="6.39864">
        <ele>228</ele>
        <time>2026-02-23T09:05:19Z</time>
      </trkpt>
      <trkpt lat="43.51609" lon="6.39886">
        <ele>227</ele>
        <time>2026-02-23T09:05:44Z</time>
      </trkpt>
      <trkpt lat="43.51612" lon="6.39915">
        <ele>226</ele>
        <time>2026-02-23T09:08:01Z</time>
      </trkpt>
      <trkpt lat="43.51617" lon="6.39946">
        <ele>225</ele>
        <time>2026-02-23T09:08:21Z</time>
      </trkpt>
      <trkpt lat="43.51617" lon="6.39977">
        <ele>224</ele>
        <time>2026-02-23T09:08:39Z</time>
      </trkpt>
      <trkpt lat="43.51611" lon="6.40007">
        <ele>225</ele>
        <time>2026-02-23T09:09:05Z</time>
      </trkpt>
      <trkpt lat="43.51599" lon="6.40033">
        <ele>225</ele>
        <time>2026-02-23T09:09:27Z</time>
      </trkpt>
      <trkpt lat="43.51582" lon="6.40054">
        <ele>227</ele>
        <time>2026-02-23T09:10:18Z</time>
      </trkpt>
      <trkpt lat="43.51566" lon="6.40075">
        <ele>229</ele>
        <time>2026-02-23T09:10:56Z</time>
      </trkpt>
      <trkpt lat="43.5155" lon="6.40096">
        <ele>231</ele>
        <time>2026-02-23T09:11:28Z</time>
      </trkpt>
      <trkpt lat="43.51534" lon="6.40119">
        <ele>233</ele>
        <time>2026-02-23T09:11:55Z</time>
      </trkpt>
      <trkpt lat="43.51522" lon="6.40145">
        <ele>234</ele>
        <time>2026-02-23T09:12:28Z</time>
      </trkpt>
      <trkpt lat="43.51514" lon="6.40174">
        <ele>235</ele>
        <time>2026-02-23T09:13:03Z</time>
      </trkpt>
      <trkpt lat="43.51498" lon="6.40196">
        <ele>235</ele>
        <time>2026-02-23T09:13:30Z</time>
      </trkpt>
      <trkpt lat="43.51483" lon="6.40217">
        <ele>235</ele>
        <time>2026-02-23T09:14:14Z</time>
      </trkpt>
      <trkpt lat="43.51483" lon="6.40246">
        <ele>234</ele>
        <time>2026-02-23T09:14:49Z</time>
      </trkpt>
      <trkpt lat="43.51496" lon="6.4027">
        <ele>233</ele>
        <time>2026-02-23T09:15:30Z</time>
      </trkpt>
      <trkpt lat="43.51507" lon="6.40297">
        <ele>233</ele>
        <time>2026-02-23T09:16:04Z</time>
      </trkpt>
      <trkpt lat="43.51521" lon="6.40321">
        <ele>234</ele>
        <time>2026-02-23T09:16:34Z</time>
      </trkpt>
      <trkpt lat="43.51532" lon="6.4035">
        <ele>234</ele>
        <time>2026-02-23T09:17:09Z</time>
      </trkpt>
      <trkpt lat="43.51542" lon="6.40377">
        <ele>234</ele>
        <time>2026-02-23T09:17:34Z</time>
      </trkpt>
      <trkpt lat="43.51555" lon="6.40403">
        <ele>234</ele>
        <time>2026-02-23T09:17:58Z</time>
      </trkpt>
      <trkpt lat="43.51565" lon="6.40431">
        <ele>233</ele>
        <time>2026-02-23T09:18:20Z</time>
      </trkpt>
      <trkpt lat="43.51569" lon="6.40462">
        <ele>233</ele>
        <time>2026-02-23T09:18:48Z</time>
      </trkpt>
      <trkpt lat="43.51574" lon="6.40494">
        <ele>234</ele>
        <time>2026-02-23T09:19:14Z</time>
      </trkpt>
      <trkpt lat="43.51577" lon="6.40525">
        <ele>235</ele>
        <time>2026-02-23T09:19:35Z</time>
      </trkpt>
      <trkpt lat="43.51579" lon="6.40557">
        <ele>235</ele>
        <time>2026-02-23T09:20:04Z</time>
      </trkpt>
      <trkpt lat="43.51585" lon="6.40588">
        <ele>235</ele>
        <time>2026-02-23T09:20:38Z</time>
      </trkpt>
      <trkpt lat="43.5159" lon="6.40619">
        <ele>235</ele>
        <time>2026-02-23T09:21:09Z</time>
      </trkpt>
      <trkpt lat="43.51593" lon="6.40649">
        <ele>234</ele>
        <time>2026-02-23T09:21:35Z</time>
      </trkpt>
      <trkpt lat="43.51606" lon="6.40673">
        <ele>233</ele>
        <time>2026-02-23T09:22:01Z</time>
      </trkpt>
      <trkpt lat="43.51628" lon="6.40679">
        <ele>234</ele>
        <time>2026-02-23T09:22:31Z</time>
      </trkpt>
      <trkpt lat="43.51651" lon="6.40676">
        <ele>233</ele>
        <time>2026-02-23T09:23:16Z</time>
      </trkpt>
      <trkpt lat="43.51674" lon="6.40673">
        <ele>233</ele>
        <time>2026-02-23T09:23:42Z</time>
      </trkpt>
      <trkpt lat="43.51697" lon="6.40673">
        <ele>233</ele>
        <time>2026-02-23T09:24:29Z</time>
      </trkpt>
      <trkpt lat="43.51719" lon="6.40673">
        <ele>232</ele>
        <time>2026-02-23T09:24:56Z</time>
      </trkpt>
      <trkpt lat="43.51741" lon="6.40678">
        <ele>231</ele>
        <time>2026-02-23T09:25:24Z</time>
      </trkpt>
      <trkpt lat="43.51763" lon="6.40683">
        <ele>231</ele>
        <time>2026-02-23T09:25:54Z</time>
      </trkpt>
      <trkpt lat="43.51786" lon="6.40681">
        <ele>231</ele>
        <time>2026-02-23T09:26:16Z</time>
      </trkpt>
      <trkpt lat="43.51809" lon="6.40685">
        <ele>231</ele>
        <time>2026-02-23T09:26:39Z</time>
      </trkpt>
      <trkpt lat="43.51832" lon="6.40689">
        <ele>231</ele>
        <time>2026-02-23T09:27:01Z</time>
      </trkpt>
      <trkpt lat="43.51855" lon="6.40686">
        <ele>231</ele>
        <time>2026-02-23T09:27:23Z</time>
      </trkpt>
      <trkpt lat="43.51877" lon="6.40689">
        <ele>231</ele>
        <time>2026-02-23T09:27:50Z</time>
      </trkpt>
      <trkpt lat="43.51901" lon="6.40691">
        <ele>231</ele>
        <time>2026-02-23T09:28:21Z</time>
      </trkpt>
      <trkpt lat="43.51924" lon="6.40693">
        <ele>232</ele>
        <time>2026-02-23T09:28:43Z</time>
      </trkpt>
      <trkpt lat="43.51947" lon="6.40701">
        <ele>232</ele>
        <time>2026-02-23T09:29:12Z</time>
      </trkpt>
      <trkpt lat="43.51969" lon="6.40712">
        <ele>233</ele>
        <time>2026-02-23T09:29:34Z</time>
      </trkpt>
      <trkpt lat="43.51989" lon="6.40728">
        <ele>233</ele>
        <time>2026-02-23T09:30:13Z</time>
      </trkpt>
      <trkpt lat="43.52009" lon="6.40742">
        <ele>233</ele>
        <time>2026-02-23T09:30:35Z</time>
      </trkpt>
      <trkpt lat="43.52028" lon="6.40759">
        <ele>233</ele>
        <time>2026-02-23T09:31:00Z</time>
      </trkpt>
      <trkpt lat="43.52047" lon="6.40775">
        <ele>233</ele>
        <time>2026-02-23T09:31:24Z</time>
      </trkpt>
      <trkpt lat="43.52066" lon="6.40794">
        <ele>234</ele>
        <time>2026-02-23T09:31:58Z</time>
      </trkpt>
      <trkpt lat="43.52086" lon="6.4081">
        <ele>234</ele>
        <time>2026-02-23T09:32:21Z</time>
      </trkpt>
      <trkpt lat="43.52106" lon="6.40824">
        <ele>235</ele>
        <time>2026-02-23T09:32:44Z</time>
      </trkpt>
      <trkpt lat="43.52127" lon="6.40836">
        <ele>236</ele>
        <time>2026-02-23T09:33:20Z</time>
      </trkpt>
      <trkpt lat="43.52149" lon="6.40839">
        <ele>236</ele>
        <time>2026-02-23T09:33:47Z</time>
      </trkpt>
      <trkpt lat="43.52172" lon="6.40839">
        <ele>236</ele>
        <time>2026-02-23T09:34:19Z</time>
      </trkpt>
      <trkpt lat="43.52194" lon="6.40832">
        <ele>235</ele>
        <time>2026-02-23T09:34:46Z</time>
      </trkpt>
      <trkpt lat="43.52216" lon="6.40825">
        <ele>235</ele>
        <time>2026-02-23T09:35:09Z</time>
      </trkpt>
      <trkpt lat="43.52239" lon="6.40821">
        <ele>235</ele>
        <time>2026-02-23T09:35:33Z</time>
      </trkpt>
      <trkpt lat="43.5226" lon="6.40809">
        <ele>235</ele>
        <time>2026-02-23T09:36:03Z</time>
      </trkpt>
      <trkpt lat="43.52281" lon="6.40797">
        <ele>236</ele>
        <time>2026-02-23T09:36:28Z</time>
      </trkpt>
      <trkpt lat="43.52303" lon="6.40788">
        <ele>236</ele>
        <time>2026-02-23T09:36:52Z</time>
      </trkpt>
      <trkpt lat="43.52325" lon="6.40777">
        <ele>235</ele>
        <time>2026-02-23T09:37:19Z</time>
      </trkpt>
      <trkpt lat="43.52347" lon="6.40768">
        <ele>234</ele>
        <time>2026-02-23T09:37:45Z</time>
      </trkpt>
      <trkpt lat="43.52369" lon="6.4076">
        <ele>232</ele>
        <time>2026-02-23T09:38:12Z</time>
      </trkpt>
      <trkpt lat="43.52386" lon="6.40753">
        <ele>230</ele>
        <time>2026-02-23T09:38:51Z</time>
      </trkpt>
      <trkpt lat="43.52384" lon="6.40776">
        <ele>228</ele>
        <time>2026-02-23T09:44:20Z</time>
      </trkpt>
      <trkpt lat="43.52367" lon="6.40794">
        <ele>226</ele>
        <time>2026-02-23T09:44:52Z</time>
      </trkpt>
      <trkpt lat="43.52345" lon="6.40802">
        <ele>225</ele>
        <time>2026-02-23T09:45:21Z</time>
      </trkpt>
      <trkpt lat="43.52325" lon="6.40816">
        <ele>223</ele>
        <time>2026-02-23T09:45:53Z</time>
      </trkpt>
      <trkpt lat="43.52304" lon="6.40832">
        <ele>220</ele>
        <time>2026-02-23T09:46:17Z</time>
      </trkpt>
      <trkpt lat="43.52283" lon="6.40841">
        <ele>218</ele>
        <time>2026-02-23T09:46:44Z</time>
      </trkpt>
      <trkpt lat="43.52262" lon="6.40851">
        <ele>216</ele>
        <time>2026-02-23T09:47:11Z</time>
      </trkpt>
      <trkpt lat="43.52244" lon="6.4087">
        <ele>215</ele>
        <time>2026-02-23T09:47:39Z</time>
      </trkpt>
      <trkpt lat="43.52229" lon="6.40893">
        <ele>214</ele>
        <time>2026-02-23T09:48:13Z</time>
      </trkpt>
      <trkpt lat="43.5221" lon="6.40913">
        <ele>213</ele>
        <time>2026-02-23T09:48:59Z</time>
      </trkpt>
      <trkpt lat="43.52193" lon="6.4094">
        <ele>212</ele>
        <time>2026-02-23T09:59:15Z</time>
      </trkpt>
      <trkpt lat="43.52172" lon="6.40954">
        <ele>211</ele>
        <time>2026-02-23T10:00:11Z</time>
      </trkpt>
      <trkpt lat="43.5215" lon="6.40959">
        <ele>212</ele>
        <time>2026-02-23T10:00:51Z</time>
      </trkpt>
      <trkpt lat="43.52127" lon="6.40962">
        <ele>213</ele>
        <time>2026-02-23T10:03:15Z</time>
      </trkpt>
      <trkpt lat="43.52106" lon="6.40972">
        <ele>215</ele>
        <time>2026-02-23T10:03:40Z</time>
      </trkpt>
      <trkpt lat="43.52086" lon="6.40986">
        <ele>216</ele>
        <time>2026-02-23T10:04:13Z</time>
      </trkpt>
      <trkpt lat="43.52069" lon="6.41003">
        <ele>216</ele>
        <time>2026-02-23T10:04:39Z</time>
      </trkpt>
      <trkpt lat="43.52052" lon="6.40989">
        <ele>217</ele>
        <time>2026-02-23T10:05:21Z</time>
      </trkpt>
      <trkpt lat="43.52044" lon="6.40961">
        <ele>220</ele>
        <time>2026-02-23T10:05:49Z</time>
      </trkpt>
      <trkpt lat="43.52037" lon="6.40932">
        <ele>226</ele>
        <time>2026-02-23T10:06:15Z</time>
      </trkpt>
      <trkpt lat="43.5202" lon="6.40914">
        <ele>235</ele>
        <time>2026-02-23T10:06:43Z</time>
      </trkpt>
      <trkpt lat="43.51999" lon="6.40901">
        <ele>244</ele>
        <time>2026-02-23T10:07:15Z</time>
      </trkpt>
      <trkpt lat="43.51979" lon="6.40886">
        <ele>252</ele>
        <time>2026-02-23T10:07:57Z</time>
      </trkpt>
      <trkpt lat="43.51957" lon="6.40877">
        <ele>259</ele>
        <time>2026-02-23T10:08:31Z</time>
      </trkpt>
      <trkpt lat="43.51934" lon="6.40879">
        <ele>258</ele>
        <time>2026-02-23T10:09:11Z</time>
      </trkpt>
      <trkpt lat="43.51912" lon="6.40887">
        <ele>255</ele>
        <time>2026-02-23T10:09:40Z</time>
      </trkpt>
      <trkpt lat="43.51889" lon="6.40883">
        <ele>251</ele>
        <time>2026-02-23T10:10:14Z</time>
      </trkpt>
      <trkpt lat="43.51866" lon="6.40881">
        <ele>245</ele>
        <time>2026-02-23T10:10:46Z</time>
      </trkpt>
      <trkpt lat="43.51843" lon="6.40885">
        <ele>244</ele>
        <time>2026-02-23T10:11:15Z</time>
      </trkpt>
      <trkpt lat="43.51821" lon="6.40893">
        <ele>243</ele>
        <time>2026-02-23T10:11:43Z</time>
      </trkpt>
      <trkpt lat="43.51799" lon="6.40898">
        <ele>243</ele>
        <time>2026-02-23T10:12:09Z</time>
      </trkpt>
      <trkpt lat="43.51779" lon="6.40913">
        <ele>242</ele>
        <time>2026-02-23T10:12:36Z</time>
      </trkpt>
      <trkpt lat="43.51763" lon="6.40933">
        <ele>242</ele>
        <time>2026-02-23T10:13:01Z</time>
      </trkpt>
      <trkpt lat="43.51744" lon="6.40952">
        <ele>241</ele>
        <time>2026-02-23T10:13:34Z</time>
      </trkpt>
      <trkpt lat="43.51725" lon="6.40971">
        <ele>242</ele>
        <time>2026-02-23T10:14:07Z</time>
      </trkpt>
      <trkpt lat="43.51707" lon="6.40991">
        <ele>243</ele>
        <time>2026-02-23T10:14:40Z</time>
      </trkpt>
      <trkpt lat="43.51689" lon="6.41008">
        <ele>244</ele>
        <time>2026-02-23T10:15:12Z</time>
      </trkpt>
      <trkpt lat="43.51668" lon="6.41021">
        <ele>245</ele>
        <time>2026-02-23T10:15:43Z</time>
      </trkpt>
      <trkpt lat="43.51645" lon="6.4103">
        <ele>247</ele>
        <time>2026-02-23T10:16:12Z</time>
      </trkpt>
      <trkpt lat="43.51624" lon="6.41042">
        <ele>248</ele>
        <time>2026-02-23T10:16:37Z</time>
      </trkpt>
      <trkpt lat="43.51607" lon="6.41061">
        <ele>249</ele>
        <time>2026-02-23T10:17:03Z</time>
      </trkpt>
      <trkpt lat="43.51588" lon="6.41079">
        <ele>251</ele>
        <time>2026-02-23T10:17:35Z</time>
      </trkpt>
      <trkpt lat="43.51569" lon="6.41095">
        <ele>253</ele>
        <time>2026-02-23T10:18:03Z</time>
      </trkpt>
      <trkpt lat="43.51554" lon="6.41117">
        <ele>253</ele>
        <time>2026-02-23T10:18:30Z</time>
      </trkpt>
      <trkpt lat="43.51538" lon="6.4114">
        <ele>254</ele>
        <time>2026-02-23T10:18:58Z</time>
      </trkpt>
      <trkpt lat="43.51524" lon="6.41164">
        <ele>253</ele>
        <time>2026-02-23T10:19:26Z</time>
      </trkpt>
      <trkpt lat="43.51514" lon="6.4119">
        <ele>253</ele>
        <time>2026-02-23T10:20:02Z</time>
      </trkpt>
      <trkpt lat="43.51494" lon="6.41201">
        <ele>253</ele>
        <time>2026-02-23T10:21:15Z</time>
      </trkpt>
      <trkpt lat="43.51472" lon="6.41203">
        <ele>253</ele>
        <time>2026-02-23T10:21:38Z</time>
      </trkpt>
      <trkpt lat="43.51452" lon="6.41192">
        <ele>255</ele>
        <time>2026-02-23T10:23:21Z</time>
      </trkpt>
      <trkpt lat="43.51438" lon="6.41169">
        <ele>257</ele>
        <time>2026-02-23T10:25:14Z</time>
      </trkpt>
      <trkpt lat="43.51421" lon="6.41149">
        <ele>258</ele>
        <time>2026-02-23T10:25:35Z</time>
      </trkpt>
      <trkpt lat="43.51404" lon="6.41129">
        <ele>260</ele>
        <time>2026-02-23T10:26:01Z</time>
      </trkpt>
      <trkpt lat="43.51387" lon="6.41109">
        <ele>261</ele>
        <time>2026-02-23T10:26:25Z</time>
      </trkpt>
      <trkpt lat="43.51367" lon="6.41091">
        <ele>263</ele>
        <time>2026-02-23T10:26:47Z</time>
      </trkpt>
      <trkpt lat="43.51348" lon="6.41076">
        <ele>264</ele>
        <time>2026-02-23T10:27:13Z</time>
      </trkpt>
      <trkpt lat="43.51327" lon="6.41075">
        <ele>264</ele>
        <time>2026-02-23T10:28:09Z</time>
      </trkpt>
      <trkpt lat="43.51305" lon="6.41074">
        <ele>265</ele>
        <time>2026-02-23T10:29:03Z</time>
      </trkpt>
      <trkpt lat="43.51283" lon="6.41085">
        <ele>265</ele>
        <time>2026-02-23T10:29:28Z</time>
      </trkpt>
      <trkpt lat="43.51262" lon="6.41098">
        <ele>264</ele>
        <time>2026-02-23T10:30:02Z</time>
      </trkpt>
      <trkpt lat="43.51241" lon="6.41106">
        <ele>264</ele>
        <time>2026-02-23T10:30:35Z</time>
      </trkpt>
      <trkpt lat="43.51219" lon="6.41117">
        <ele>264</ele>
        <time>2026-02-23T10:31:05Z</time>
      </trkpt>
      <trkpt lat="43.51198" lon="6.41127">
        <ele>263</ele>
        <time>2026-02-23T10:31:31Z</time>
      </trkpt>
      <trkpt lat="43.51176" lon="6.41131">
        <ele>263</ele>
        <time>2026-02-23T10:32:11Z</time>
      </trkpt>
      <trkpt lat="43.51154" lon="6.41124">
        <ele>263</ele>
        <time>2026-02-23T10:32:41Z</time>
      </trkpt>
      <trkpt lat="43.51133" lon="6.4112">
        <ele>263</ele>
        <time>2026-02-23T10:33:17Z</time>
      </trkpt>
      <trkpt lat="43.51117" lon="6.41139">
        <ele>264</ele>
        <time>2026-02-23T10:33:55Z</time>
      </trkpt>
      <trkpt lat="43.511" lon="6.41159">
        <ele>265</ele>
        <time>2026-02-23T10:34:21Z</time>
      </trkpt>
      <trkpt lat="43.51082" lon="6.41178">
        <ele>266</ele>
        <time>2026-02-23T10:34:44Z</time>
      </trkpt>
      <trkpt lat="43.51062" lon="6.41194">
        <ele>267</ele>
        <time>2026-02-23T10:35:15Z</time>
      </trkpt>
      <trkpt lat="43.5104" lon="6.41207">
        <ele>268</ele>
        <time>2026-02-23T10:35:45Z</time>
      </trkpt>
      <trkpt lat="43.51019" lon="6.41221">
        <ele>269</ele>
        <time>2026-02-23T10:36:09Z</time>
      </trkpt>
      <trkpt lat="43.50998" lon="6.41233">
        <ele>269</ele>
        <time>2026-02-23T10:39:13Z</time>
      </trkpt>
      <trkpt lat="43.50978" lon="6.41246">
        <ele>269</ele>
        <time>2026-02-23T10:39:36Z</time>
      </trkpt>
      <trkpt lat="43.50959" lon="6.41262">
        <ele>268</ele>
        <time>2026-02-23T10:40:01Z</time>
      </trkpt>
      <trkpt lat="43.5094" lon="6.41278">
        <ele>268</ele>
        <time>2026-02-23T10:40:27Z</time>
      </trkpt>
      <trkpt lat="43.50923" lon="6.41301">
        <ele>267</ele>
        <time>2026-02-23T10:40:51Z</time>
      </trkpt>
      <trkpt lat="43.50908" lon="6.41325">
        <ele>266</ele>
        <time>2026-02-23T10:41:16Z</time>
      </trkpt>
      <trkpt lat="43.50892" lon="6.41348">
        <ele>265</ele>
        <time>2026-02-23T10:41:42Z</time>
      </trkpt>
      <trkpt lat="43.50878" lon="6.41373">
        <ele>264</ele>
        <time>2026-02-23T10:42:11Z</time>
      </trkpt>
      <trkpt lat="43.50865" lon="6.41399">
        <ele>263</ele>
        <time>2026-02-23T10:42:39Z</time>
      </trkpt>
      <trkpt lat="43.50852" lon="6.41425">
        <ele>262</ele>
        <time>2026-02-23T10:43:09Z</time>
      </trkpt>
      <trkpt lat="43.50836" lon="6.41449">
        <ele>262</ele>
        <time>2026-02-23T10:43:33Z</time>
      </trkpt>
      <trkpt lat="43.50821" lon="6.41476">
        <ele>261</ele>
        <time>2026-02-23T10:43:59Z</time>
      </trkpt>
      <trkpt lat="43.50804" lon="6.41506">
        <ele>261</ele>
        <time>2026-02-23T11:48:52Z</time>
      </trkpt>
      <trkpt lat="43.50812" lon="6.41489">
        <ele>261</ele>
        <time>2026-02-23T11:49:39Z</time>
      </trkpt>
      <trkpt lat="43.50828" lon="6.41467">
        <ele>261</ele>
        <time>2026-02-23T11:56:23Z</time>
      </trkpt>
      <trkpt lat="43.50843" lon="6.41443">
        <ele>261</ele>
        <time>2026-02-23T11:56:55Z</time>
      </trkpt>
      <trkpt lat="43.50857" lon="6.4142">
        <ele>261</ele>
        <time>2026-02-23T11:57:23Z</time>
      </trkpt>
      <trkpt lat="43.50871" lon="6.41395">
        <ele>262</ele>
        <time>2026-02-23T11:57:50Z</time>
      </trkpt>
      <trkpt lat="43.50885" lon="6.41369">
        <ele>264</ele>
        <time>2026-02-23T11:58:20Z</time>
      </trkpt>
      <trkpt lat="43.50899" lon="6.41345">
        <ele>267</ele>
        <time>2026-02-23T11:58:48Z</time>
      </trkpt>
      <trkpt lat="43.50913" lon="6.4132">
        <ele>268</ele>
        <time>2026-02-23T11:59:17Z</time>
      </trkpt>
      <trkpt lat="43.5093" lon="6.41298">
        <ele>269</ele>
        <time>2026-02-23T11:59:46Z</time>
      </trkpt>
      <trkpt lat="43.50947" lon="6.41277">
        <ele>270</ele>
        <time>2026-02-23T12:00:14Z</time>
      </trkpt>
      <trkpt lat="43.50966" lon="6.41259">
        <ele>268</ele>
        <time>2026-02-23T12:00:44Z</time>
      </trkpt>
      <trkpt lat="43.50985" lon="6.41241">
        <ele>267</ele>
        <time>2026-02-23T12:01:10Z</time>
      </trkpt>
      <trkpt lat="43.50999" lon="6.41218">
        <ele>266</ele>
        <time>2026-02-23T12:01:45Z</time>
      </trkpt>
      <trkpt lat="43.51002" lon="6.41188">
        <ele>264</ele>
        <time>2026-02-23T12:02:14Z</time>
      </trkpt>
      <trkpt lat="43.51003" lon="6.41157">
        <ele>262</ele>
        <time>2026-02-23T12:02:48Z</time>
      </trkpt>
      <trkpt lat="43.51014" lon="6.4113">
        <ele>260</ele>
        <time>2026-02-23T12:03:18Z</time>
      </trkpt>
      <trkpt lat="43.51027" lon="6.41106">
        <ele>258</ele>
        <time>2026-02-23T12:03:44Z</time>
      </trkpt>
      <trkpt lat="43.51035" lon="6.41077">
        <ele>256</ele>
        <time>2026-02-23T12:04:13Z</time>
      </trkpt>
      <trkpt lat="43.51046" lon="6.41052">
        <ele>254</ele>
        <time>2026-02-23T12:05:26Z</time>
      </trkpt>
      <trkpt lat="43.51065" lon="6.41035">
        <ele>252</ele>
        <time>2026-02-23T12:06:22Z</time>
      </trkpt>
      <trkpt lat="43.51084" lon="6.4102">
        <ele>251</ele>
        <time>2026-02-23T12:06:56Z</time>
      </trkpt>
      <trkpt lat="43.511" lon="6.40998">
        <ele>251</ele>
        <time>2026-02-23T12:07:30Z</time>
      </trkpt>
      <trkpt lat="43.51115" lon="6.40976">
        <ele>252</ele>
        <time>2026-02-23T12:08:00Z</time>
      </trkpt>
      <trkpt lat="43.51127" lon="6.40958">
        <ele>252</ele>
        <time>2026-02-23T12:08:36Z</time>
      </trkpt>
      <trkpt lat="43.5111" lon="6.40952">
        <ele>251</ele>
        <time>2026-02-23T12:09:02Z</time>
      </trkpt>
      <trkpt lat="43.51088" lon="6.40944">
        <ele>249</ele>
        <time>2026-02-23T12:09:36Z</time>
      </trkpt>
      <trkpt lat="43.51065" lon="6.40936">
        <ele>245</ele>
        <time>2026-02-23T12:10:01Z</time>
      </trkpt>
      <trkpt lat="43.51041" lon="6.40934">
        <ele>242</ele>
        <time>2026-02-23T12:10:34Z</time>
      </trkpt>
      <trkpt lat="43.51018" lon="6.40935">
        <ele>238</ele>
        <time>2026-02-23T12:11:04Z</time>
      </trkpt>
      <trkpt lat="43.50996" lon="6.40937">
        <ele>234</ele>
        <time>2026-02-23T12:11:38Z</time>
      </trkpt>
      <trkpt lat="43.50973" lon="6.40944">
        <ele>232</ele>
        <time>2026-02-23T12:12:06Z</time>
      </trkpt>
      <trkpt lat="43.50952" lon="6.40955">
        <ele>231</ele>
        <time>2026-02-23T12:12:33Z</time>
      </trkpt>
      <trkpt lat="43.5093" lon="6.40968">
        <ele>229</ele>
        <time>2026-02-23T12:13:06Z</time>
      </trkpt>
      <trkpt lat="43.50909" lon="6.40979">
        <ele>228</ele>
        <time>2026-02-23T12:13:34Z</time>
      </trkpt>
      <trkpt lat="43.50887" lon="6.40978">
        <ele>227</ele>
        <time>2026-02-23T12:14:04Z</time>
      </trkpt>
      <trkpt lat="43.50865" lon="6.40983">
        <ele>226</ele>
        <time>2026-02-23T12:14:36Z</time>
      </trkpt>
      <trkpt lat="43.50846" lon="6.40997">
        <ele>224</ele>
        <time>2026-02-23T12:15:27Z</time>
      </trkpt>
      <trkpt lat="43.50829" lon="6.41018">
        <ele>220</ele>
        <time>2026-02-23T12:17:30Z</time>
      </trkpt>
      <trkpt lat="43.50811" lon="6.41036">
        <ele>218</ele>
        <time>2026-02-23T12:18:00Z</time>
      </trkpt>
      <trkpt lat="43.50789" lon="6.41045">
        <ele>216</ele>
        <time>2026-02-23T12:18:23Z</time>
      </trkpt>
      <trkpt lat="43.50766" lon="6.41052">
        <ele>216</ele>
        <time>2026-02-23T12:18:49Z</time>
      </trkpt>
      <trkpt lat="43.50743" lon="6.4106">
        <ele>215</ele>
        <time>2026-02-23T12:19:14Z</time>
      </trkpt>
      <trkpt lat="43.50723" lon="6.41075">
        <ele>214</ele>
        <time>2026-02-23T12:19:36Z</time>
      </trkpt>
      <trkpt lat="43.50705" lon="6.41093">
        <ele>213</ele>
        <time>2026-02-23T12:20:02Z</time>
      </trkpt>
      <trkpt lat="43.50684" lon="6.41109">
        <ele>212</ele>
        <time>2026-02-23T12:20:30Z</time>
      </trkpt>
      <trkpt lat="43.50663" lon="6.41117">
        <ele>212</ele>
        <time>2026-02-23T12:20:55Z</time>
      </trkpt>
      <trkpt lat="43.50644" lon="6.4113">
        <ele>212</ele>
        <time>2026-02-23T12:21:20Z</time>
      </trkpt>
      <trkpt lat="43.50639" lon="6.41158">
        <ele>213</ele>
        <time>2026-02-23T12:21:58Z</time>
      </trkpt>
      <trkpt lat="43.50638" lon="6.4119">
        <ele>213</ele>
        <time>2026-02-23T12:22:25Z</time>
      </trkpt>
      <trkpt lat="43.50633" lon="6.41222">
        <ele>213</ele>
        <time>2026-02-23T12:22:54Z</time>
      </trkpt>
      <trkpt lat="43.50625" lon="6.41251">
        <ele>213</ele>
        <time>2026-02-23T12:23:22Z</time>
      </trkpt>
      <trkpt lat="43.50617" lon="6.41279">
        <ele>213</ele>
        <time>2026-02-23T12:23:52Z</time>
      </trkpt>
      <trkpt lat="43.50601" lon="6.41299">
        <ele>212</ele>
        <time>2026-02-23T12:24:16Z</time>
      </trkpt>
      <trkpt lat="43.50579" lon="6.41301">
        <ele>212</ele>
        <time>2026-02-23T12:24:39Z</time>
      </trkpt>
      <trkpt lat="43.5056" lon="6.41317">
        <ele>211</ele>
        <time>2026-02-23T12:25:04Z</time>
      </trkpt>
      <trkpt lat="43.50538" lon="6.41332">
        <ele>211</ele>
        <time>2026-02-23T12:25:34Z</time>
      </trkpt>
      <trkpt lat="43.50515" lon="6.41337">
        <ele>211</ele>
        <time>2026-02-23T12:26:00Z</time>
      </trkpt>
      <trkpt lat="43.50495" lon="6.41331">
        <ele>210</ele>
        <time>2026-02-23T12:26:26Z</time>
      </trkpt>
      <trkpt lat="43.50492" lon="6.41302">
        <ele>208</ele>
        <time>2026-02-23T12:32:56Z</time>
      </trkpt>
      <trkpt lat="43.50497" lon="6.41271">
        <ele>206</ele>
        <time>2026-02-23T12:33:34Z</time>
      </trkpt>
      <trkpt lat="43.50507" lon="6.41243">
        <ele>205</ele>
        <time>2026-02-23T12:34:02Z</time>
      </trkpt>
      <trkpt lat="43.50519" lon="6.41217">
        <ele>203</ele>
        <time>2026-02-23T12:34:43Z</time>
      </trkpt>
      <trkpt lat="43.50533" lon="6.41192">
        <ele>202</ele>
        <time>2026-02-23T12:35:20Z</time>
      </trkpt>
      <trkpt lat="43.50543" lon="6.41165">
        <ele>200</ele>
        <time>2026-02-23T12:36:21Z</time>
      </trkpt>
      <trkpt lat="43.50551" lon="6.41136">
        <ele>199</ele>
        <time>2026-02-23T12:37:00Z</time>
      </trkpt>
      <trkpt lat="43.50556" lon="6.41104">
        <ele>197</ele>
        <time>2026-02-23T12:37:37Z</time>
      </trkpt>
      <trkpt lat="43.50558" lon="6.41073">
        <ele>195</ele>
        <time>2026-02-23T12:38:23Z</time>
      </trkpt>
      <trkpt lat="43.50567" lon="6.41046">
        <ele>192</ele>
        <time>2026-02-23T12:38:59Z</time>
      </trkpt>
      <trkpt lat="43.50576" lon="6.41018">
        <ele>189</ele>
        <time>2026-02-23T12:39:37Z</time>
      </trkpt>
      <trkpt lat="43.50582" lon="6.40988">
        <ele>187</ele>
        <time>2026-02-23T12:40:04Z</time>
      </trkpt>
      <trkpt lat="43.50579" lon="6.40956">
        <ele>185</ele>
        <time>2026-02-23T12:40:52Z</time>
      </trkpt>
      <trkpt lat="43.50578" lon="6.40925">
        <ele>184</ele>
        <time>2026-02-23T12:41:21Z</time>
      </trkpt>
      <trkpt lat="43.50581" lon="6.40895">
        <ele>183</ele>
        <time>2026-02-23T12:41:45Z</time>
      </trkpt>
      <trkpt lat="43.50579" lon="6.40863">
        <ele>182</ele>
        <time>2026-02-23T12:42:27Z</time>
      </trkpt>
      <trkpt lat="43.5057" lon="6.40834">
        <ele>181</ele>
        <time>2026-02-23T12:42:54Z</time>
      </trkpt>
      <trkpt lat="43.50562" lon="6.40804">
        <ele>181</ele>
        <time>2026-02-23T12:43:43Z</time>
      </trkpt>
      <trkpt lat="43.50556" lon="6.40773">
        <ele>180</ele>
        <time>2026-02-23T12:44:07Z</time>
      </trkpt>
      <trkpt lat="43.50543" lon="6.40748">
        <ele>180</ele>
        <time>2026-02-23T12:44:29Z</time>
      </trkpt>
      <trkpt lat="43.50524" lon="6.40732">
        <ele>179</ele>
        <time>2026-02-23T12:44:55Z</time>
      </trkpt>
      <trkpt lat="43.50504" lon="6.40716">
        <ele>178</ele>
        <time>2026-02-23T12:45:17Z</time>
      </trkpt>
      <trkpt lat="43.50487" lon="6.40696">
        <ele>177</ele>
        <time>2026-02-23T12:45:40Z</time>
      </trkpt>
      <trkpt lat="43.50473" lon="6.40671">
        <ele>177</ele>
        <time>2026-02-23T12:46:03Z</time>
      </trkpt>
      <trkpt lat="43.50465" lon="6.40643">
        <ele>176</ele>
        <time>2026-02-23T12:46:33Z</time>
      </trkpt>
      <trkpt lat="43.50452" lon="6.40618">
        <ele>175</ele>
        <time>2026-02-23T12:47:03Z</time>
      </trkpt>
      <trkpt lat="43.50434" lon="6.40599">
        <ele>175</ele>
        <time>2026-02-23T12:47:33Z</time>
      </trkpt>
      <trkpt lat="43.50414" lon="6.40587">
        <ele>174</ele>
        <time>2026-02-23T12:47:59Z</time>
      </trkpt>
      <trkpt lat="43.50393" lon="6.40575">
        <ele>173</ele>
        <time>2026-02-23T12:48:25Z</time>
      </trkpt>
      <trkpt lat="43.50371" lon="6.40572">
        <ele>173</ele>
        <time>2026-02-23T12:48:54Z</time>
      </trkpt>
      <trkpt lat="43.50348" lon="6.4057">
        <ele>173</ele>
        <time>2026-02-23T12:49:42Z</time>
      </trkpt>
      <trkpt lat="43.50329" lon="6.40567">
        <ele>172</ele>
        <time>2026-02-23T12:50:22Z</time>
      </trkpt>
      <trkpt lat="43.50328" lon="6.40539">
        <ele>171</ele>
        <time>2026-02-23T12:51:21Z</time>
      </trkpt>
      <trkpt lat="43.50329" lon="6.40508">
        <ele>170</ele>
        <time>2026-02-23T12:51:46Z</time>
      </trkpt>
      <trkpt lat="43.50321" lon="6.40479">
        <ele>168</ele>
        <time>2026-02-23T12:52:21Z</time>
      </trkpt>
      <trkpt lat="43.50311" lon="6.40451">
        <ele>166</ele>
        <time>2026-02-23T12:53:24Z</time>
      </trkpt>
      <trkpt lat="43.50301" lon="6.40424">
        <ele>165</ele>
        <time>2026-02-23T12:54:14Z</time>
      </trkpt>
      <trkpt lat="43.50303" lon="6.40394">
        <ele>163</ele>
        <time>2026-02-23T12:54:46Z</time>
      </trkpt>
      <trkpt lat="43.50303" lon="6.40364">
        <ele>162</ele>
        <time>2026-02-23T12:55:22Z</time>
      </trkpt>
      <trkpt lat="43.50296" lon="6.40336">
        <ele>159</ele>
        <time>2026-02-23T12:55:58Z</time>
      </trkpt>
      <trkpt lat="43.50294" lon="6.40305">
        <ele>157</ele>
        <time>2026-02-23T12:56:30Z</time>
      </trkpt>
      <trkpt lat="43.50299" lon="6.40275">
        <ele>154</ele>
        <time>2026-02-23T12:56:59Z</time>
      </trkpt>
      <trkpt lat="43.50304" lon="6.40245">
        <ele>152</ele>
        <time>2026-02-23T12:57:41Z</time>
      </trkpt>
      <trkpt lat="43.50307" lon="6.40214">
        <ele>151</ele>
        <time>2026-02-23T12:59:15Z</time>
      </trkpt>
      <trkpt lat="43.50302" lon="6.40184">
        <ele>149</ele>
        <time>2026-02-23T12:59:58Z</time>
      </trkpt>
      <trkpt lat="43.50296" lon="6.40155">
        <ele>149</ele>
        <time>2026-02-23T13:00:37Z</time>
      </trkpt>
      <trkpt lat="43.50283" lon="6.40131">
        <ele>150</ele>
        <time>2026-02-23T13:01:15Z</time>
      </trkpt>
      <trkpt lat="43.50281" lon="6.40101">
        <ele>149</ele>
        <time>2026-02-23T13:01:49Z</time>
      </trkpt>
      <trkpt lat="43.50292" lon="6.40075">
        <ele>150</ele>
        <time>2026-02-23T13:06:47Z</time>
      </trkpt>
      <trkpt lat="43.50304" lon="6.40051">
        <ele>150</ele>
        <time>2026-02-23T13:11:29Z</time>
      </trkpt>
      <trkpt lat="43.50298" lon="6.40023">
        <ele>151</ele>
        <time>2026-02-23T13:12:13Z</time>
      </trkpt>
      <trkpt lat="43.5028" lon="6.40007">
        <ele>152</ele>
        <time>2026-02-23T13:12:46Z</time>
      </trkpt>
      <trkpt lat="43.50257" lon="6.40003">
        <ele>153</ele>
        <time>2026-02-23T13:13:30Z</time>
      </trkpt>
      <trkpt lat="43.50235" lon="6.40004">
        <ele>154</ele>
        <time>2026-02-23T13:14:04Z</time>
      </trkpt>
      <trkpt lat="43.50212" lon="6.40001">
        <ele>154</ele>
        <time>2026-02-23T13:14:27Z</time>
      </trkpt>
      <trkpt lat="43.50191" lon="6.39989">
        <ele>154</ele>
        <time>2026-02-23T13:14:54Z</time>
      </trkpt>
      <trkpt lat="43.50171" lon="6.39971">
        <ele>155</ele>
        <time>2026-02-23T13:15:19Z</time>
      </trkpt>
      <trkpt lat="43.50157" lon="6.39946">
        <ele>155</ele>
        <time>2026-02-23T13:15:46Z</time>
      </trkpt>
      <trkpt lat="43.5015" lon="6.39916">
        <ele>157</ele>
        <time>2026-02-23T13:16:08Z</time>
      </trkpt>
      <trkpt lat="43.50148" lon="6.39884">
        <ele>158</ele>
        <time>2026-02-23T13:16:54Z</time>
      </trkpt>
      <trkpt lat="43.50149" lon="6.39853">
        <ele>159</ele>
        <time>2026-02-23T13:17:18Z</time>
      </trkpt>
      <trkpt lat="43.5015" lon="6.39822">
        <ele>161</ele>
        <time>2026-02-23T13:18:14Z</time>
      </trkpt>
      <trkpt lat="43.5015" lon="6.39791">
        <ele>162</ele>
        <time>2026-02-23T13:18:47Z</time>
      </trkpt>
      <trkpt lat="43.50151" lon="6.39759">
        <ele>164</ele>
        <time>2026-02-23T13:19:12Z</time>
      </trkpt>
      <trkpt lat="43.50153" lon="6.39728">
        <ele>166</ele>
        <time>2026-02-23T13:19:50Z</time>
      </trkpt>
      <trkpt lat="43.50155" lon="6.39697">
        <ele>167</ele>
        <time>2026-02-23T13:20:14Z</time>
      </trkpt>
      <trkpt lat="43.50157" lon="6.39665">
        <ele>169</ele>
        <time>2026-02-23T13:20:46Z</time>
      </trkpt>
      <trkpt lat="43.50153" lon="6.39634">
        <ele>170</ele>
        <time>2026-02-23T13:21:10Z</time>
      </trkpt>
      <trkpt lat="43.50149" lon="6.39604">
        <ele>172</ele>
        <time>2026-02-23T13:21:58Z</time>
      </trkpt>
      <trkpt lat="43.50148" lon="6.39572">
        <ele>174</ele>
        <time>2026-02-23T13:22:19Z</time>
      </trkpt>
      <trkpt lat="43.50147" lon="6.39541">
        <ele>176</ele>
        <time>2026-02-23T13:23:12Z</time>
      </trkpt>
      <trkpt lat="43.50145" lon="6.3951">
        <ele>178</ele>
        <time>2026-02-23T13:23:40Z</time>
      </trkpt>
      <trkpt lat="43.50139" lon="6.3948">
        <ele>181</ele>
        <time>2026-02-23T13:24:10Z</time>
      </trkpt>
      <trkpt lat="43.50134" lon="6.3945">
        <ele>183</ele>
        <time>2026-02-23T13:24:45Z</time>
      </trkpt>
      <trkpt lat="43.50125" lon="6.39422">
        <ele>185</ele>
        <time>2026-02-23T13:26:41Z</time>
      </trkpt>
      <trkpt lat="43.50117" lon="6.39392">
        <ele>186</ele>
        <time>2026-02-23T13:27:16Z</time>
      </trkpt>
      <trkpt lat="43.50118" lon="6.39361">
        <ele>187</ele>
        <time>2026-02-23T13:27:42Z</time>
      </trkpt>
      <trkpt lat="43.50125" lon="6.39332">
        <ele>187</ele>
        <time>2026-02-23T13:28:07Z</time>
      </trkpt>
      <trkpt lat="43.50136" lon="6.39303">
        <ele>188</ele>
        <time>2026-02-23T13:31:12Z</time>
      </trkpt>
      <trkpt lat="43.50149" lon="6.39278">
        <ele>189</ele>
        <time>2026-02-23T13:31:48Z</time>
      </trkpt>
      <trkpt lat="43.50157" lon="6.39249">
        <ele>190</ele>
        <time>2026-02-23T13:32:30Z</time>
      </trkpt>
      <trkpt lat="43.50159" lon="6.39218">
        <ele>190</ele>
        <time>2026-02-23T13:32:56Z</time>
      </trkpt>
      <trkpt lat="43.50163" lon="6.39187">
        <ele>190</ele>
        <time>2026-02-23T13:33:26Z</time>
      </trkpt>
      <trkpt lat="43.50167" lon="6.39156">
        <ele>189</ele>
        <time>2026-02-23T13:33:55Z</time>
      </trkpt>
      <trkpt lat="43.5017" lon="6.39124">
        <ele>189</ele>
        <time>2026-02-23T13:34:37Z</time>
      </trkpt>
      <trkpt lat="43.50178" lon="6.39094">
        <ele>188</ele>
        <time>2026-02-23T13:35:05Z</time>
      </trkpt>
      <trkpt lat="43.50182" lon="6.39064">
        <ele>187</ele>
        <time>2026-02-23T13:35:32Z</time>
      </trkpt>
      <trkpt lat="43.50185" lon="6.39033">
        <ele>186</ele>
        <time>2026-02-23T13:36:05Z</time>
      </trkpt>
      <trkpt lat="43.50191" lon="6.39003">
        <ele>185</ele>
        <time>2026-02-23T13:36:29Z</time>
      </trkpt>
      <trkpt lat="43.50198" lon="6.38972">
        <ele>185</ele>
        <time>2026-02-23T13:36:57Z</time>
      </trkpt>
      <trkpt lat="43.50204" lon="6.38941">
        <ele>185</ele>
        <time>2026-02-23T13:37:26Z</time>
      </trkpt>
      <trkpt lat="43.50209" lon="6.38909">
        <ele>185</ele>
        <time>2026-02-23T13:37:50Z</time>
      </trkpt>
      <trkpt lat="43.50213" lon="6.38878">
        <ele>186</ele>
        <time>2026-02-23T13:38:22Z</time>
      </trkpt>
      <trkpt lat="43.50219" lon="6.38846">
        <ele>186</ele>
        <time>2026-02-23T13:39:10Z</time>
      </trkpt>
      <trkpt lat="43.50233" lon="6.38827">
        <ele>187</ele>
        <time>2026-02-23T13:40:31Z</time>
      </trkpt>
      <trkpt lat="43.50254" lon="6.38831">
        <ele>187</ele>
        <time>2026-02-23T13:41:00Z</time>
      </trkpt>
      <trkpt lat="43.50277" lon="6.38835">
        <ele>188</ele>
        <time>2026-02-23T13:41:22Z</time>
      </trkpt>
      <trkpt lat="43.50299" lon="6.38839">
        <ele>188</ele>
        <time>2026-02-23T13:41:47Z</time>
      </trkpt>
      <trkpt lat="43.50323" lon="6.38844">
        <ele>189</ele>
        <time>2026-02-23T13:42:30Z</time>
      </trkpt>
      <trkpt lat="43.50346" lon="6.38846">
        <ele>186</ele>
        <time>2026-02-23T13:42:49Z</time>
      </trkpt>
      <trkpt lat="43.50368" lon="6.38848">
        <ele>184</ele>
        <time>2026-02-23T13:43:09Z</time>
      </trkpt>
      <trkpt lat="43.50391" lon="6.38841">
        <ele>181</ele>
        <time>2026-02-23T13:43:36Z</time>
      </trkpt>
      <trkpt lat="43.50413" lon="6.38833">
        <ele>178</ele>
        <time>2026-02-23T13:44:19Z</time>
      </trkpt>
      <trkpt lat="43.50435" lon="6.38831">
        <ele>176</ele>
        <time>2026-02-23T13:44:47Z</time>
      </trkpt>
      <trkpt lat="43.50456" lon="6.38844">
        <ele>175</ele>
        <time>2026-02-23T13:45:16Z</time>
      </trkpt>
      <trkpt lat="43.50475" lon="6.38861">
        <ele>174</ele>
        <time>2026-02-23T13:45:42Z</time>
      </trkpt>
      <trkpt lat="43.50494" lon="6.38879">
        <ele>173</ele>
        <time>2026-02-23T13:46:06Z</time>
      </trkpt>
      <trkpt lat="43.50515" lon="6.38893">
        <ele>172</ele>
        <time>2026-02-23T13:46:29Z</time>
      </trkpt>
      <trkpt lat="43.50535" lon="6.38907">
        <ele>172</ele>
        <time>2026-02-23T13:46:52Z</time>
      </trkpt>
      <trkpt lat="43.50558" lon="6.3891">
        <ele>171</ele>
        <time>2026-02-23T13:47:21Z</time>
      </trkpt>
      <trkpt lat="43.5058" lon="6.3891">
        <ele>171</ele>
        <time>2026-02-23T13:51:12Z</time>
      </trkpt>
      <trkpt lat="43.50603" lon="6.3891">
        <ele>171</ele>
        <time>2026-02-23T13:51:38Z</time>
      </trkpt>
      <trkpt lat="43.50624" lon="6.38916">
        <ele>171</ele>
        <time>2026-02-23T13:52:10Z</time>
      </trkpt>
      <trkpt lat="43.50637" lon="6.38941">
        <ele>171</ele>
        <time>2026-02-23T13:52:48Z</time>
      </trkpt>
      <trkpt lat="43.50643" lon="6.3897">
        <ele>171</ele>
        <time>2026-02-23T13:53:38Z</time>
      </trkpt>
      <trkpt lat="43.50644" lon="6.38997">
        <ele>171</ele>
        <time>2026-02-23T13:54:35Z</time>
      </trkpt>
      <trkpt lat="43.50663" lon="6.38994">
        <ele>171</ele>
        <time>2026-02-23T13:55:15Z</time>
      </trkpt>
      <trkpt lat="43.50684" lon="6.38987">
        <ele>171</ele>
        <time>2026-02-23T13:55:44Z</time>
      </trkpt>
      <trkpt lat="43.50705" lon="6.38986">
        <ele>171</ele>
        <time>2026-02-23T13:56:38Z</time>
      </trkpt>
      <trkpt lat="43.50716" lon="6.38962">
        <ele>171</ele>
        <time>2026-02-23T13:57:20Z</time>
      </trkpt>
      <trkpt lat="43.50724" lon="6.38933">
        <ele>171</ele>
        <time>2026-02-23T13:58:00Z</time>
      </trkpt>
      <trkpt lat="43.50731" lon="6.38903">
        <ele>170</ele>
        <time>2026-02-23T13:58:39Z</time>
      </trkpt>
      <trkpt lat="43.50739" lon="6.38874">
        <ele>170</ele>
        <time>2026-02-23T13:59:20Z</time>
      </trkpt>
      <trkpt lat="43.50757" lon="6.38854">
        <ele>170</ele>
        <time>2026-02-23T13:59:48Z</time>
      </trkpt>
      <trkpt lat="43.5078" lon="6.38846">
        <ele>170</ele>
        <time>2026-02-23T14:00:17Z</time>
      </trkpt>
    </trkseg>
  </trk>
</gpx>